createdAt,value
2017-04-26T00:00:34.633Z,6.81
2017-04-26T00:01:15.508Z,6.93
2017-04-26T00:01:56.414Z,6.92
2017-04-26T00:02:37.253Z,6.81
2017-04-26T00:03:18.111Z,6.84
2017-04-26T00:03:58.995Z,6.85
2017-04-26T00:04:39.844Z,6.75
2017-04-26T00:05:20.728Z,6.75
2017-04-26T00:06:01.579Z,6.67
2017-04-26T00:06:42.462Z,6.74
2017-04-26T00:07:23.324Z,6.75
2017-04-26T00:08:04.200Z,6.77
2017-04-26T00:08:45.070Z,6.82
2017-04-26T00:09:25.918Z,6.75
2017-04-26T00:10:06.815Z,6.69
2017-04-26T00:10:47.795Z,6.77
2017-04-26T00:11:28.624Z,6.77
2017-04-26T00:12:09.503Z,6.75
2017-04-26T00:12:50.358Z,6.74
2017-04-26T00:13:31.243Z,6.62
2017-04-26T00:14:12.105Z,6.7
2017-04-26T00:14:52.977Z,6.64
2017-04-26T00:15:33.853Z,6.74
2017-04-26T00:16:14.752Z,6.72
2017-04-26T00:16:55.594Z,6.72
2017-04-26T00:17:36.428Z,6.75
2017-04-26T00:18:17.290Z,6.67
2017-04-26T00:18:58.145Z,6.7
2017-04-26T00:19:39.031Z,6.75
2017-04-26T00:20:19.914Z,6.85
2017-04-26T00:21:00.829Z,6.85
2017-04-26T00:21:41.722Z,6.87
2017-04-26T00:22:22.603Z,6.77
2017-04-26T00:23:03.480Z,6.92
2017-04-26T00:23:44.372Z,6.64
2017-04-26T00:24:25.236Z,6.75
2017-04-26T00:25:06.095Z,6.62
2017-04-26T00:25:46.976Z,6.75
2017-04-26T00:26:27.856Z,6.74
2017-04-26T00:27:08.793Z,6.59
2017-04-26T00:27:49.680Z,6.56
2017-04-26T00:28:30.546Z,6.64
2017-04-26T00:29:11.405Z,6.59
2017-04-26T00:29:52.279Z,6.72
2017-04-26T00:30:33.136Z,6.57
2017-04-26T00:31:14.006Z,6.56
2017-04-26T00:31:54.854Z,6.69
2017-04-26T00:32:35.718Z,6.6
2017-04-26T00:33:16.588Z,6.57
2017-04-26T00:33:57.449Z,6.56
2017-04-26T00:34:38.426Z,6.56
2017-04-26T00:35:19.277Z,6.52
2017-04-26T00:36:00.173Z,6.51
2017-04-26T00:36:41.025Z,6.46
2017-04-26T00:37:21.901Z,6.54
2017-04-26T00:38:02.785Z,6.62
2017-04-26T00:38:43.630Z,6.54
2017-04-26T00:39:24.490Z,6.64
2017-04-26T00:40:05.352Z,6.69
2017-04-26T00:40:46.212Z,6.74
2017-04-26T00:41:27.082Z,6.66
2017-04-26T00:42:07.953Z,6.69
2017-04-26T00:42:48.812Z,6.64
2017-04-26T00:43:29.683Z,6.54
2017-04-26T00:44:10.568Z,6.56
2017-04-26T00:44:51.465Z,6.41
2017-04-26T00:45:32.339Z,6.38
2017-04-26T00:46:13.181Z,6.45
2017-04-26T00:46:54.027Z,6.44
2017-04-26T00:47:34.914Z,6.42
2017-04-26T00:48:15.778Z,6.35
2017-04-26T00:48:56.607Z,6.36
2017-04-26T00:49:37.490Z,6.38
2017-04-26T00:50:18.347Z,6.49
2017-04-26T00:50:59.223Z,6.39
2017-04-26T00:51:40.067Z,6.35
2017-04-26T00:52:20.933Z,6.31
2017-04-26T00:53:01.801Z,6.33
2017-04-26T00:53:42.680Z,6.3
2017-04-26T00:54:23.523Z,6.19
2017-04-26T00:55:04.403Z,6.3
2017-04-26T00:55:45.267Z,6.31
2017-04-26T00:56:26.118Z,6.17
2017-04-26T00:57:06.994Z,6.22
2017-04-26T00:57:47.829Z,6.28
2017-04-26T00:58:28.700Z,6.36
2017-04-26T00:59:09.565Z,6.3
2017-04-26T00:59:50.472Z,6.33
2017-04-26T01:00:31.293Z,6.3
2017-04-26T01:01:12.173Z,6.26
2017-04-26T01:01:53.034Z,6.22
2017-04-26T01:02:33.910Z,6.19
2017-04-26T01:03:14.793Z,6.2
2017-04-26T01:03:55.637Z,6.22
2017-04-26T01:04:36.498Z,6.22
2017-04-26T01:05:17.401Z,6.24
2017-04-26T01:05:58.262Z,6.3
2017-04-26T01:06:39.140Z,6.27
2017-04-26T01:07:19.993Z,6.2
2017-04-26T01:08:00.881Z,6.24
2017-04-26T01:08:41.767Z,6.31
2017-04-26T01:09:22.645Z,6.36
2017-04-26T01:10:03.518Z,6.33
2017-04-26T01:10:44.399Z,6.2
2017-04-26T01:11:25.262Z,6.19
2017-04-26T01:12:06.137Z,6.19
2017-04-26T01:12:47.010Z,6.16
2017-04-26T01:13:27.894Z,6.14
2017-04-26T01:14:08.799Z,6.19
2017-04-26T01:14:49.668Z,6.09
2017-04-26T01:15:30.532Z,6.05
2017-04-26T01:16:11.417Z,6.11
2017-04-26T01:16:52.380Z,6.22
2017-04-26T01:17:33.216Z,6.14
2017-04-26T01:18:14.120Z,6.09
2017-04-26T01:18:54.979Z,6.14
2017-04-26T01:19:35.836Z,6.07
2017-04-26T01:20:16.717Z,6.04
2017-04-26T01:20:57.599Z,6.04
2017-04-26T01:21:38.464Z,6.12
2017-04-26T01:22:19.360Z,6.07
2017-04-26T01:23:00.209Z,6.05
2017-04-26T01:23:41.128Z,6.04
2017-04-26T01:24:21.982Z,6.12
2017-04-26T01:25:02.848Z,6.05
2017-04-26T01:25:43.743Z,6.04
2017-04-26T01:26:24.609Z,6.02
2017-04-26T01:27:05.474Z,6.09
2017-04-26T01:27:46.320Z,6.07
2017-04-26T01:28:27.198Z,6.12
2017-04-26T01:29:08.056Z,6.14
2017-04-26T01:29:48.902Z,6.07
2017-04-26T01:30:29.804Z,6.05
2017-04-26T01:31:10.671Z,6.09
2017-04-26T01:31:51.573Z,6.11
2017-04-26T01:32:32.418Z,5.99
2017-04-26T01:33:13.289Z,6.01
2017-04-26T01:33:54.155Z,6.08
2017-04-26T01:34:35.058Z,6.07
2017-04-26T01:35:15.913Z,6.02
2017-04-26T01:35:56.818Z,6.08
2017-04-26T01:36:37.706Z,6.11
2017-04-26T01:37:18.577Z,6.11
2017-04-26T01:37:59.457Z,6.08
2017-04-26T01:38:40.306Z,6.12
2017-04-26T01:39:21.209Z,6.07
2017-04-26T01:40:02.080Z,5.98
2017-04-26T01:40:42.945Z,5.94
2017-04-26T01:41:23.831Z,6.01
2017-04-26T01:42:04.695Z,6.09
2017-04-26T01:42:45.569Z,6.07
2017-04-26T01:43:26.458Z,6.04
2017-04-26T01:44:07.309Z,5.99
2017-04-26T01:44:48.171Z,6.09
2017-04-26T01:45:29.051Z,6.11
2017-04-26T01:46:09.908Z,6.08
2017-04-26T01:46:50.774Z,6.04
2017-04-26T01:47:31.659Z,6.09
2017-04-26T01:48:12.550Z,6.11
2017-04-26T01:48:53.436Z,6.07
2017-04-26T01:49:34.283Z,5.97
2017-04-26T01:50:15.172Z,5.84
2017-04-26T01:50:56.065Z,5.98
2017-04-26T01:51:36.895Z,6.02
2017-04-26T01:52:17.757Z,6.07
2017-04-26T01:52:58.643Z,5.94
2017-04-26T01:53:39.526Z,5.98
2017-04-26T01:54:20.420Z,6.05
2017-04-26T01:55:01.257Z,6.01
2017-04-26T01:55:42.141Z,6.04
2017-04-26T01:56:22.977Z,6.04
2017-04-26T01:57:03.841Z,5.94
2017-04-26T01:57:44.702Z,5.83
2017-04-26T01:58:25.586Z,5.83
2017-04-26T01:59:06.417Z,5.86
2017-04-26T01:59:47.287Z,5.8
2017-04-26T02:00:28.158Z,5.8
2017-04-26T02:01:09.024Z,5.86
2017-04-26T02:01:49.887Z,5.9
2017-04-26T02:02:30.792Z,5.83
2017-04-26T02:03:11.615Z,5.87
2017-04-26T02:03:52.496Z,5.93
2017-04-26T02:04:33.360Z,5.91
2017-04-26T02:05:14.226Z,5.94
2017-04-26T02:05:55.100Z,6.04
2017-04-26T02:06:35.965Z,5.97
2017-04-26T02:07:16.840Z,6.04
2017-04-26T02:07:57.718Z,6.01
2017-04-26T02:08:38.574Z,5.98
2017-04-26T02:09:19.486Z,5.94
2017-04-26T02:10:00.349Z,5.98
2017-04-26T02:10:41.200Z,5.98
2017-04-26T02:11:22.064Z,5.83
2017-04-26T02:12:02.931Z,5.84
2017-04-26T02:12:43.805Z,5.83
2017-04-26T02:13:24.701Z,5.83
2017-04-26T02:14:05.613Z,5.86
2017-04-26T02:14:46.481Z,5.89
2017-04-26T02:15:27.377Z,5.87
2017-04-26T02:16:08.243Z,5.84
2017-04-26T02:16:49.110Z,5.9
2017-04-26T02:17:29.992Z,5.84
2017-04-26T02:18:10.874Z,5.84
2017-04-26T02:18:51.745Z,6.04
2017-04-26T02:19:32.584Z,6.08
2017-04-26T02:20:13.467Z,5.99
2017-04-26T02:20:54.355Z,6.05
2017-04-26T02:21:35.215Z,6.07
2017-04-26T02:22:16.082Z,5.97
2017-04-26T02:22:56.937Z,5.84
2017-04-26T02:23:37.841Z,5.98
2017-04-26T02:24:18.695Z,5.97
2017-04-26T02:24:59.563Z,5.94
2017-04-26T02:25:40.420Z,5.89
2017-04-26T02:26:21.287Z,5.89
2017-04-26T02:27:02.160Z,5.9
2017-04-26T02:27:43.030Z,5.98
2017-04-26T02:28:23.888Z,5.86
2017-04-26T02:29:04.766Z,5.89
2017-04-26T02:29:45.629Z,5.83
2017-04-26T02:30:26.497Z,5.83
2017-04-26T02:31:07.350Z,5.9
2017-04-26T02:31:48.243Z,5.8
2017-04-26T02:32:29.100Z,5.79
2017-04-26T02:33:09.973Z,5.89
2017-04-26T02:33:50.823Z,5.84
2017-04-26T02:34:31.716Z,5.83
2017-04-26T02:35:12.591Z,5.8
2017-04-26T02:35:53.445Z,5.84
2017-04-26T02:36:34.307Z,5.84
2017-04-26T02:37:15.237Z,5.89
2017-04-26T02:37:56.125Z,5.84
2017-04-26T02:38:36.987Z,5.8
2017-04-26T02:39:17.827Z,5.73
2017-04-26T02:39:58.707Z,5.82
2017-04-26T02:40:39.573Z,5.87
2017-04-26T02:41:20.439Z,5.84
2017-04-26T02:42:01.335Z,5.79
2017-04-26T02:42:42.202Z,5.71
2017-04-26T02:43:23.033Z,5.8
2017-04-26T02:44:03.926Z,5.84
2017-04-26T02:44:44.773Z,5.83
2017-04-26T03:18:51.478Z,5.83
2017-04-26T03:22:25.654Z,5.71
2017-04-26T03:23:06.536Z,5.69
2017-04-26T03:23:52.213Z,5.76
2017-04-26T03:48:55.004Z,5.71
2017-04-26T03:49:35.890Z,5.71
2017-04-26T03:50:16.711Z,5.8
2017-04-26T04:12:20.975Z,5.73
2017-04-26T04:13:01.855Z,5.82
2017-04-26T04:13:42.753Z,5.73
2017-04-26T04:23:22.688Z,5.71
2017-04-26T04:25:13.061Z,5.72
2017-04-26T04:25:53.913Z,5.68
2017-04-26T04:26:34.822Z,5.72
2017-04-26T04:27:22.244Z,5.84
2017-04-26T04:28:03.171Z,5.76
2017-04-26T04:28:44.030Z,5.76
2017-04-26T04:29:24.877Z,5.71
2017-04-26T04:30:05.716Z,5.73
2017-04-26T04:30:48.219Z,5.82
2017-04-26T04:31:29.091Z,5.68
2017-04-26T04:32:09.983Z,5.71
2017-04-26T04:32:50.863Z,5.75
2017-04-26T04:33:31.715Z,5.71
2017-04-26T04:34:12.574Z,5.82
2017-04-26T04:34:53.435Z,5.65
2017-04-26T04:35:34.293Z,5.64
2017-04-26T04:36:15.160Z,5.64
2017-04-26T04:36:56.042Z,5.65
2017-04-26T04:37:36.893Z,5.56
2017-04-26T04:38:17.831Z,5.54
2017-04-26T04:38:58.693Z,5.57
2017-04-26T04:39:39.554Z,5.56
2017-04-26T04:40:20.454Z,5.56
2017-04-26T04:41:01.363Z,5.64
2017-04-26T04:45:24.885Z,5.62
2017-04-26T04:46:05.776Z,5.61
2017-04-26T05:04:47.517Z,5.59
2017-04-26T05:05:28.395Z,5.53
2017-04-26T05:06:09.253Z,5.62
2017-04-26T05:06:50.113Z,5.71
2017-04-26T05:07:30.985Z,5.75
2017-04-26T05:08:11.867Z,5.75
2017-04-26T05:08:52.743Z,5.69
2017-04-26T05:09:33.618Z,5.69
2017-04-26T05:10:14.491Z,5.72
2017-04-26T05:10:55.356Z,5.72
2017-04-26T05:11:36.217Z,5.8
2017-04-26T05:12:17.097Z,5.76
2017-04-26T05:12:57.969Z,5.75
2017-04-26T05:13:38.828Z,5.82
2017-04-26T05:14:19.699Z,5.8
2017-04-26T05:15:00.612Z,5.8
2017-04-26T05:15:41.460Z,5.84
2017-04-26T05:16:22.316Z,5.86
2017-04-26T05:17:03.159Z,5.76
2017-04-26T05:17:44.012Z,5.86
2017-04-26T05:18:24.903Z,5.86
2017-04-26T05:19:05.767Z,5.83
2017-04-26T05:19:46.627Z,6.01
2017-04-26T05:20:27.567Z,5.87
2017-04-26T05:21:08.438Z,5.83
2017-04-26T05:21:49.317Z,5.83
2017-04-26T05:22:35.058Z,5.84
2017-04-26T05:23:15.941Z,5.8
2017-04-26T05:23:56.821Z,5.87
2017-04-26T05:24:37.787Z,5.91
2017-04-26T05:25:18.661Z,5.8
2017-04-26T05:25:59.524Z,5.86
2017-04-26T05:26:40.408Z,5.84
2017-04-26T05:27:21.261Z,5.86
2017-04-26T05:28:02.125Z,5.79
2017-04-26T05:28:42.989Z,5.8
2017-04-26T05:29:23.839Z,5.9
2017-04-26T05:30:04.725Z,5.82
2017-04-26T05:30:45.600Z,5.83
2017-04-26T05:31:26.480Z,5.83
2017-04-26T05:32:07.355Z,5.83
2017-04-26T05:32:48.219Z,5.9
2017-04-26T05:33:29.121Z,5.84
2017-04-26T05:34:20.819Z,5.82
2017-04-26T05:35:01.677Z,5.75
2017-04-26T05:35:42.599Z,5.75
2017-04-26T05:36:23.474Z,5.79
2017-04-26T05:37:04.350Z,5.76
2017-04-26T05:37:45.203Z,5.8
2017-04-26T05:38:26.080Z,5.83
2017-04-26T05:39:06.958Z,5.75
2017-04-26T05:39:47.847Z,5.8
2017-04-26T05:40:28.721Z,5.84
2017-04-26T05:41:09.586Z,5.83
2017-04-26T05:41:50.451Z,5.9
2017-04-26T05:42:33.062Z,5.87
2017-04-26T05:43:13.935Z,5.75
2017-04-26T05:43:54.867Z,5.69
2017-04-26T05:44:35.695Z,5.73
2017-04-26T05:45:18.335Z,5.82
2017-04-26T05:45:59.253Z,5.83
2017-04-26T05:46:40.110Z,5.87
2017-04-26T05:47:20.963Z,5.83
2017-04-26T05:48:01.854Z,5.86
2017-04-26T05:48:42.742Z,6.01
2017-04-26T05:49:23.621Z,5.86
2017-04-26T05:50:04.528Z,5.89
2017-04-26T05:50:45.380Z,5.93
2017-04-26T05:51:26.236Z,5.9
2017-04-26T05:52:09.876Z,5.89
2017-04-26T05:52:50.755Z,5.84
2017-04-26T05:53:31.635Z,5.98
2017-04-26T05:54:12.533Z,6.04
2017-04-26T05:54:53.413Z,6.01
2017-04-26T05:55:34.292Z,5.98
2017-04-26T05:56:17.027Z,6.07
2017-04-26T05:56:57.931Z,6.05
2017-04-26T05:57:38.773Z,6.09
2017-04-26T05:58:19.644Z,6.01
2017-04-26T05:59:00.543Z,6.02
2017-04-26T05:59:41.405Z,5.98
2017-04-26T06:00:22.289Z,5.98
2017-04-26T06:01:03.145Z,5.98
2017-04-26T06:01:44.035Z,5.93
2017-04-26T06:02:24.954Z,6.01
2017-04-26T06:03:05.835Z,6.08
2017-04-26T06:03:46.695Z,6.08
2017-04-26T06:04:27.583Z,6.08
2017-04-26T06:05:08.466Z,6.07
2017-04-26T06:05:49.343Z,6.04
2017-04-26T06:06:30.236Z,6.14
2017-04-26T06:08:09.696Z,6.22
2017-04-26T06:41:10.656Z,7.03
2017-04-26T06:41:51.534Z,7.1
2017-04-26T06:42:32.418Z,7.18
2017-04-26T06:43:13.288Z,7.15
2017-04-26T06:45:14.877Z,7.21
2017-04-26T06:49:54.757Z,7.43
2017-04-26T06:50:35.632Z,7.57
2017-04-26T06:51:16.516Z,7.66
2017-04-26T06:51:57.419Z,7.72
2017-04-26T06:52:38.341Z,7.61
2017-04-26T07:12:57.254Z,11.4
2017-04-26T07:13:38.145Z,11.57
2017-04-26T07:14:19.063Z,11.81
2017-04-26T07:14:59.948Z,11.54
2017-04-26T07:15:40.853Z,11.44
2017-04-26T07:16:21.703Z,11.3
2017-04-26T07:17:02.583Z,11.18
2017-04-26T07:17:43.481Z,11.26
2017-04-26T07:18:24.380Z,11.45
2017-04-26T07:19:20.099Z,11.23
2017-04-26T07:20:01.019Z,11.17
2017-04-26T07:20:41.920Z,11.19
2017-04-26T07:21:22.819Z,11.26
2017-04-26T07:22:03.693Z,11.35
2017-04-26T07:22:44.574Z,11.37
2017-04-26T07:23:25.497Z,11.51
2017-04-26T07:24:06.386Z,11.63
2017-04-26T07:24:47.352Z,11.62
2017-04-26T07:25:28.241Z,11.59
2017-04-26T07:26:09.080Z,11.75
2017-04-26T07:26:49.968Z,11.75
2017-04-26T07:27:30.854Z,11.87
2017-04-26T07:28:11.724Z,11.99
2017-04-26T07:28:52.598Z,12.07
2017-04-26T07:29:33.492Z,12.07
2017-04-26T07:30:14.359Z,12.25
2017-04-26T07:30:55.258Z,12.22
2017-04-26T07:31:36.129Z,12.36
2017-04-26T07:32:17.028Z,12.37
2017-04-26T07:32:57.905Z,12.35
2017-04-26T07:33:38.808Z,12.43
2017-04-26T07:34:19.703Z,12.42
2017-04-26T07:35:00.657Z,12.47
2017-04-26T07:35:41.549Z,12.58
2017-04-26T07:36:22.451Z,12.37
2017-04-26T07:37:03.350Z,12.39
2017-04-26T07:37:44.263Z,12.37
2017-04-26T07:38:26.872Z,12.43
2017-04-26T07:39:07.748Z,12.58
2017-04-26T07:39:48.635Z,12.85
2017-04-26T07:40:29.540Z,12.37
2017-04-26T07:41:10.419Z,12.28
2017-04-26T07:41:51.317Z,12.36
2017-04-26T07:42:32.210Z,12.65
2017-04-26T07:43:13.128Z,12.8
2017-04-26T07:43:54.021Z,12.93
2017-04-26T07:44:34.918Z,13.16
2017-04-26T07:45:19.112Z,13.19
2017-04-26T07:46:00.013Z,13.16
2017-04-26T07:46:41.151Z,13.35
2017-04-26T07:47:21.843Z,13.38
2017-04-26T07:48:02.746Z,13.49
2017-04-26T07:48:43.625Z,13.68
2017-04-26T07:49:25.487Z,13.75
2017-04-26T07:50:06.395Z,13.56
2017-04-26T07:50:49.139Z,13.5
2017-04-26T07:51:30.023Z,13.42
2017-04-26T07:52:10.918Z,13.65
2017-04-26T07:52:56.637Z,13.67
2017-04-26T07:53:37.525Z,13.46
2017-04-26T07:54:18.411Z,13.47
2017-04-26T07:54:59.312Z,13.22
2017-04-26T07:55:40.193Z,13.25
2017-04-26T07:56:21.094Z,13.56
2017-04-26T07:57:02.009Z,13.63
2017-04-26T07:57:42.965Z,13.57
2017-04-26T07:58:26.388Z,13.53
2017-04-26T07:59:07.278Z,13.39
2017-04-26T07:59:48.162Z,13.41
2017-04-26T08:00:29.064Z,13.33
2017-04-26T08:01:09.942Z,13.13
2017-04-26T08:01:50.853Z,13.04
2017-04-26T08:02:31.735Z,12.24
2017-04-26T08:03:12.629Z,11.4
2017-04-26T08:03:54.366Z,11.57
2017-04-26T08:04:35.261Z,11.68
2017-04-26T08:05:16.160Z,11.99
2017-04-26T08:05:57.032Z,12.27
2017-04-26T08:06:37.944Z,12.58
2017-04-26T08:07:18.854Z,12.46
2017-04-26T08:07:59.738Z,12.27
2017-04-26T08:08:40.614Z,11.51
2017-04-26T08:09:21.513Z,11.59
2017-04-26T08:10:02.384Z,11.88
2017-04-26T08:10:43.282Z,12.32
2017-04-26T08:11:24.170Z,12.67
2017-04-26T08:12:05.052Z,12.58
2017-04-26T08:12:45.906Z,12.78
2017-04-26T08:13:26.774Z,13.11
2017-04-26T08:14:07.769Z,13.19
2017-04-26T08:14:48.672Z,13.3
2017-04-26T08:15:29.565Z,13.27
2017-04-26T08:16:10.458Z,13.42
2017-04-26T08:16:51.376Z,13.62
2017-04-26T08:17:32.251Z,13.7
2017-04-26T08:18:13.153Z,13.87
2017-04-26T08:18:54.061Z,13.74
2017-04-26T08:19:34.951Z,13.39
2017-04-26T08:20:15.818Z,13.44
2017-04-26T08:20:56.717Z,13.93
2017-04-26T08:21:37.669Z,13.92
2017-04-26T08:22:18.528Z,14.14
2017-04-26T08:22:59.403Z,14.36
2017-04-26T08:23:40.299Z,14.44
2017-04-26T08:24:23.891Z,14.29
2017-04-26T08:25:04.772Z,14.08
2017-04-26T08:25:45.686Z,13.71
2017-04-26T08:26:26.558Z,13.63
2017-04-26T08:27:07.449Z,13.75
2017-04-26T08:27:48.305Z,14.03
2017-04-26T08:28:29.181Z,14.05
2017-04-26T08:29:10.072Z,14.17
2017-04-26T08:29:50.961Z,14.33
2017-04-26T08:30:31.889Z,14.58
2017-04-26T08:31:12.780Z,14.78
2017-04-26T08:31:53.640Z,15.09
2017-04-26T08:32:34.529Z,15.17
2017-04-26T08:33:15.436Z,15.19
2017-04-26T08:33:56.336Z,15.22
2017-04-26T08:34:37.198Z,15.04
2017-04-26T08:35:18.083Z,14.81
2017-04-26T08:35:58.982Z,14.78
2017-04-26T08:36:39.894Z,14.85
2017-04-26T08:37:20.790Z,15.09
2017-04-26T08:38:01.688Z,14.81
2017-04-26T08:38:42.537Z,14.65
2017-04-26T08:39:23.428Z,14.59
2017-04-26T08:40:04.346Z,14.4
2017-04-26T08:40:45.224Z,14.14
2017-04-26T08:41:26.107Z,13.78
2017-04-26T08:42:06.990Z,13.54
2017-04-26T08:42:47.878Z,13.23
2017-04-26T08:43:28.734Z,13.04
2017-04-26T08:44:09.643Z,12.8
2017-04-26T08:44:50.530Z,12.47
2017-04-26T08:45:31.408Z,12.25
2017-04-26T08:46:12.291Z,11.83
2017-04-26T08:46:53.174Z,11.86
2017-04-26T08:47:34.067Z,12.02
2017-04-26T08:48:14.905Z,12.31
2017-04-26T08:48:55.776Z,12.7
2017-04-26T08:49:36.641Z,12.95
2017-04-26T08:50:17.541Z,12.98
2017-04-26T08:50:58.533Z,13.22
2017-04-26T08:51:39.404Z,13.44
2017-04-26T08:52:20.292Z,13.6
2017-04-26T08:53:01.153Z,13.56
2017-04-26T08:53:42.030Z,13.13
2017-04-26T08:54:22.920Z,13.01
2017-04-26T08:55:03.821Z,12.67
2017-04-26T08:55:44.710Z,12.54
2017-04-26T08:56:26.392Z,12.47
2017-04-26T08:57:07.277Z,12.64
2017-04-26T08:57:48.167Z,13
2017-04-26T08:58:29.044Z,12.8
2017-04-26T08:59:09.943Z,12.67
2017-04-26T08:59:50.815Z,12.67
2017-04-26T09:00:31.694Z,12.93
2017-04-26T09:01:12.566Z,13.12
2017-04-26T09:01:53.447Z,13.3
2017-04-26T09:02:34.336Z,13.28
2017-04-26T09:03:15.234Z,13.13
2017-04-26T09:03:56.109Z,13.31
2017-04-26T09:04:37.193Z,13.28
2017-04-26T09:05:18.095Z,13.28
2017-04-26T09:05:59.724Z,13.37
2017-04-26T09:06:40.598Z,13.68
2017-04-26T09:07:21.472Z,13.95
2017-04-26T09:08:02.614Z,14.23
2017-04-26T09:08:43.589Z,14.51
2017-04-26T09:09:24.740Z,14.7
2017-04-26T09:10:05.631Z,15.09
2017-04-26T09:10:46.517Z,15.14
2017-04-26T09:11:27.386Z,14.94
2017-04-26T09:12:08.256Z,14.81
2017-04-26T09:12:49.156Z,15.02
2017-04-26T09:13:30.033Z,15.18
2017-04-26T09:14:10.899Z,14.72
2017-04-26T09:14:51.808Z,14.77
2017-04-26T09:15:32.669Z,15.04
2017-04-26T09:16:13.555Z,15.35
2017-04-26T09:16:54.416Z,15.54
2017-04-26T09:17:35.290Z,15.64
2017-04-26T09:18:16.191Z,15.49
2017-04-26T09:18:57.074Z,15.17
2017-04-26T09:19:37.952Z,14.89
2017-04-26T09:20:18.852Z,14.69
2017-04-26T09:20:59.732Z,14.54
2017-04-26T09:21:40.649Z,14.32
2017-04-26T09:22:21.559Z,14.36
2017-04-26T09:23:02.447Z,14.17
2017-04-26T09:23:43.339Z,14.22
2017-04-26T09:24:24.238Z,13.93
2017-04-26T09:25:05.126Z,13.93
2017-04-26T09:25:46.006Z,13.7
2017-04-26T09:26:26.900Z,13.85
2017-04-26T09:27:07.789Z,13.93
2017-04-26T09:27:48.680Z,14.28
2017-04-26T09:28:29.575Z,14.3
2017-04-26T09:29:10.447Z,14.68
2017-04-26T09:29:51.339Z,14.65
2017-04-26T09:30:32.218Z,14.78
2017-04-26T09:31:13.099Z,14.97
2017-04-26T09:31:53.991Z,15.27
2017-04-26T09:32:34.875Z,15.19
2017-04-26T09:33:15.762Z,15.02
2017-04-26T09:33:56.625Z,14.97
2017-04-26T09:34:37.556Z,14.73
2017-04-26T09:35:18.427Z,14.55
2017-04-26T09:35:59.318Z,14.29
2017-04-26T09:36:40.221Z,14.25
2017-04-26T09:37:21.094Z,14.08
2017-04-26T09:38:01.989Z,13.81
2017-04-26T09:38:42.866Z,13.7
2017-04-26T09:39:23.756Z,14.04
2017-04-26T09:40:04.629Z,13.78
2017-04-26T09:40:45.526Z,13.65
2017-04-26T09:41:26.437Z,13.78
2017-04-26T09:42:07.293Z,13.52
2017-04-26T09:42:48.188Z,13.2
2017-04-26T09:43:29.083Z,13.27
2017-04-26T09:44:10.004Z,13.09
2017-04-26T09:44:50.879Z,13.13
2017-04-26T09:45:31.776Z,13.28
2017-04-26T09:46:12.643Z,13.47
2017-04-26T09:46:53.547Z,13.92
2017-04-26T09:47:34.423Z,14.07
2017-04-26T09:48:15.389Z,14.08
2017-04-26T09:48:56.275Z,14.08
2017-04-26T09:49:37.180Z,13.97
2017-04-26T09:50:18.029Z,13.67
2017-04-26T09:50:58.924Z,13.49
2017-04-26T09:51:39.829Z,13.35
2017-04-26T09:52:20.721Z,13.33
2017-04-26T09:53:01.597Z,13.31
2017-04-26T09:53:42.516Z,13.56
2017-04-26T09:54:23.385Z,13.81
2017-04-26T09:55:04.231Z,13.39
2017-04-26T09:55:45.109Z,13.25
2017-04-26T09:56:26.001Z,13.13
2017-04-26T09:57:07.477Z,13.41
2017-04-26T09:57:48.362Z,13.83
2017-04-26T09:58:29.258Z,13.97
2017-04-26T09:59:10.197Z,14.2
2017-04-26T09:59:51.094Z,14.1
2017-04-26T10:00:31.991Z,14.23
2017-04-26T10:01:12.882Z,14.45
2017-04-26T10:01:53.773Z,14.43
2017-04-26T10:02:34.667Z,14.6
2017-04-26T10:03:15.556Z,14.72
2017-04-26T10:03:56.444Z,14.55
2017-04-26T10:04:37.360Z,14.51
2017-04-26T10:05:18.272Z,14.68
2017-04-26T10:05:59.131Z,14.72
2017-04-26T10:06:40.030Z,14.37
2017-04-26T10:07:21.072Z,14.6
2017-04-26T10:08:01.853Z,14.68
2017-04-26T10:08:42.743Z,14.77
2017-04-26T10:09:23.641Z,15.03
2017-04-26T10:10:04.549Z,15
2017-04-26T10:10:45.454Z,15.15
2017-04-26T10:11:26.316Z,15.19
2017-04-26T10:12:07.210Z,14.73
2017-04-26T10:12:48.129Z,14
2017-04-26T10:13:29.011Z,13.65
2017-04-26T10:14:09.914Z,13.85
2017-04-26T10:14:50.804Z,13.68
2017-04-26T10:15:31.682Z,13.7
2017-04-26T10:16:12.568Z,13.63
2017-04-26T10:16:53.460Z,13.72
2017-04-26T10:17:34.336Z,13.6
2017-04-26T10:18:15.215Z,13.2
2017-04-26T10:18:56.122Z,13.28
2017-04-26T10:19:37.007Z,13.39
2017-04-26T10:20:17.890Z,13.49
2017-04-26T10:20:58.782Z,13.63
2017-04-26T10:21:39.668Z,13.47
2017-04-26T10:22:20.551Z,13.2
2017-04-26T10:23:01.436Z,13.23
2017-04-26T10:23:42.312Z,13.15
2017-04-26T10:24:23.201Z,13.28
2017-04-26T10:25:04.093Z,13.08
2017-04-26T10:25:44.997Z,13.13
2017-04-26T10:26:25.882Z,13.09
2017-04-26T10:27:06.769Z,13.12
2017-04-26T10:27:47.649Z,13.03
2017-04-26T10:28:28.557Z,13.05
2017-04-26T10:29:09.444Z,13.12
2017-04-26T10:29:50.307Z,12.94
2017-04-26T10:30:31.190Z,12.93
2017-04-26T10:31:12.056Z,13.08
2017-04-26T10:31:52.947Z,13.2
2017-04-26T10:32:33.820Z,12.98
2017-04-26T10:33:14.692Z,12.97
2017-04-26T10:33:55.588Z,12.95
2017-04-26T10:34:36.474Z,12.98
2017-04-26T10:35:17.379Z,13.08
2017-04-26T10:35:58.244Z,12.97
2017-04-26T10:36:39.116Z,12.97
2017-04-26T10:37:20.003Z,12.82
2017-04-26T10:38:00.886Z,12.87
2017-04-26T10:38:41.769Z,12.94
2017-04-26T10:39:22.642Z,12.93
2017-04-26T10:40:03.524Z,12.95
2017-04-26T10:40:44.416Z,13.12
2017-04-26T10:41:25.301Z,13.04
2017-04-26T10:42:06.192Z,12.97
2017-04-26T10:42:47.078Z,13.01
2017-04-26T10:44:20.332Z,12.58
2017-04-26T10:46:08.572Z,12.68
2017-04-26T10:46:49.473Z,12.42
2017-04-26T10:47:30.362Z,12.53
2017-04-26T10:48:11.253Z,12.39
2017-04-26T10:48:52.125Z,12.27
2017-04-26T10:49:33.012Z,12.15
2017-04-26T10:50:13.878Z,12.28
2017-04-26T10:50:57.602Z,12.24
2017-04-26T10:51:38.285Z,12.28
2017-04-26T10:52:19.171Z,12.47
2017-04-26T10:53:00.039Z,12.43
2017-04-26T10:53:40.931Z,12.36
2017-04-26T10:54:21.833Z,12.29
2017-04-26T10:55:02.713Z,12.36
2017-04-26T10:55:45.291Z,12.13
2017-04-26T10:56:26.180Z,12.09
2017-04-26T10:57:07.053Z,12.13
2017-04-26T10:57:47.950Z,12.32
2017-04-26T10:58:28.927Z,12.46
2017-04-26T10:59:09.795Z,12.5
2017-04-26T10:59:50.669Z,12.54
2017-04-26T11:00:31.536Z,12.35
2017-04-26T11:01:12.422Z,12.32
2017-04-26T11:01:53.304Z,12.04
2017-04-26T11:04:07.040Z,11.97
2017-04-26T11:04:47.944Z,12.07
2017-04-26T11:06:17.023Z,12.09
2017-04-26T11:06:57.906Z,12.09
2017-04-26T11:07:38.780Z,12.24
2017-04-26T11:08:19.669Z,12.35
2017-04-26T11:09:00.544Z,12.37
2017-04-26T11:09:41.426Z,12.46
2017-04-26T11:10:22.297Z,12.18
2017-04-26T11:11:03.176Z,12.22
2017-04-26T11:11:44.071Z,12.24
2017-04-26T11:12:24.949Z,12.42
2017-04-26T11:13:05.807Z,12.55
2017-04-26T11:13:46.685Z,12.58
2017-04-26T11:14:27.562Z,12.45
2017-04-26T11:15:15.432Z,12.24
2017-04-26T11:15:56.257Z,12.25
2017-04-26T11:16:37.124Z,12.29
2017-04-26T11:17:18.007Z,12.27
2017-04-26T11:17:58.887Z,12.36
2017-04-26T11:18:39.750Z,12.28
2017-04-26T11:19:20.631Z,12.17
2017-04-26T11:20:01.573Z,12.09
2017-04-26T11:20:42.478Z,12.07
2017-04-26T11:21:23.358Z,12.1
2017-04-26T11:22:04.245Z,12.28
2017-04-26T11:22:45.131Z,12.46
2017-04-26T11:23:26.037Z,12.54
2017-04-26T11:24:06.919Z,12.47
2017-04-26T11:24:47.802Z,12.37
2017-04-26T11:25:28.690Z,12.15
2017-04-26T11:26:14.322Z,11.7
2017-04-26T11:26:55.258Z,11.72
2017-04-26T11:27:36.128Z,11.88
2017-04-26T11:28:16.998Z,11.99
2017-04-26T11:28:57.914Z,12.21
2017-04-26T11:29:38.757Z,12.24
2017-04-26T11:30:19.632Z,12.28
2017-04-26T11:31:00.479Z,12.37
2017-04-26T11:31:41.354Z,12.47
2017-04-26T11:32:22.214Z,12.45
2017-04-26T11:33:03.075Z,12.24
2017-04-26T11:33:43.952Z,11.87
2017-04-26T11:34:24.856Z,11.73
2017-04-26T11:35:05.743Z,11.99
2017-04-26T11:35:46.599Z,12.15
2017-04-26T11:36:27.480Z,12.15
2017-04-26T11:37:08.367Z,12.13
2017-04-26T11:37:49.252Z,12.1
2017-04-26T11:38:30.137Z,12.22
2017-04-26T11:39:11.001Z,12.46
2017-04-26T11:39:51.889Z,12.62
2017-04-26T11:40:32.769Z,12.58
2017-04-26T11:41:13.648Z,12.54
2017-04-26T11:41:54.513Z,12.39
2017-04-26T11:42:35.387Z,12.36
2017-04-26T11:43:16.267Z,12.31
2017-04-26T11:43:57.131Z,12.36
2017-04-26T11:44:38.009Z,12.25
2017-04-26T11:45:18.873Z,12.36
2017-04-26T11:45:59.761Z,12.35
2017-04-26T11:46:40.631Z,12.25
2017-04-26T11:47:21.497Z,12.32
2017-04-26T11:48:02.390Z,12.45
2017-04-26T11:48:43.229Z,12.53
2017-04-26T11:49:24.121Z,12.42
2017-04-26T11:50:04.990Z,12.35
2017-04-26T11:50:45.859Z,12.43
2017-04-26T11:51:26.728Z,12.45
2017-04-26T11:52:07.648Z,12.57
2017-04-26T11:52:48.539Z,12.61
2017-04-26T11:53:29.409Z,12.68
2017-04-26T11:54:10.292Z,12.79
2017-04-26T11:54:51.157Z,12.85